Time;durP1;ratioP1;P1;durP2;ratioP2;P2;SDS_P1;SDS_P2;PMS_P1;PMS_P2;Temp;Humidity;BMP_temperature;BMP_pressure;BME280_temperature;BME280_humidity;BME280_pressure;Samples;Min_cycle;Max_cycle;Signal;HPM_P1;HPM_P2
2022/05/28 00:00:17;;;;;;;1999.90;999.90;;;;;;;20.09;50.41;95662.84;4989204;28;20034;-69
2022/05/28 00:02:43;;;;;;;1999.90;999.90;;;;;;;19.42;52.13;95645.81;4989268;28;20069;-69
2022/05/28 00:05:08;;;;;;;1999.90;999.90;;;;;;;19.42;52.41;95645.81;4990579;28;20116;-70
2022/05/28 00:07:34;;;;;;;1999.90;999.90;;;;;;;19.94;51.15;95656.34;4989323;28;20042;-69
2022/05/28 00:09:59;;;;;;;1999.90;999.90;;;;;;;20.14;50.34;95634.78;4990482;28;20097;-69
2022/05/28 00:12:28;;;;;;;1999.90;999.90;;;;;;;19.99;50.71;95631.00;4990724;28;20204;-69
2022/05/28 00:14:54;;;;;;;1999.90;999.90;;;;;;;19.80;51.30;95652.53;5006088;28;20109;-70
2022/05/28 00:17:19;;;;;;;1999.90;999.90;;;;;;;19.64;51.30;95644.44;4990015;28;20133;-70
2022/05/28 00:19:45;;;;;;;1999.90;999.90;;;;;;;19.42;51.95;95643.91;4989042;28;20030;-69
2022/05/28 00:22:10;;;;;;;1999.90;999.90;;;;;;;18.44;54.65;95649.75;4988876;28;20034;-69
2022/05/28 00:24:35;;;;;;;1999.90;999.90;;;;;;;19.00;53.62;95643.59;4989135;28;20093;-69
2022/05/28 00:27:00;;;;;;;1999.90;999.90;;;;;;;18.80;53.98;95647.31;4990668;28;20026;-68
2022/05/28 00:29:26;;;;;;;1999.90;999.90;;;;;;;18.83;54.02;95635.81;4990090;28;20066;-70
2022/05/28 00:31:52;;;;;;;1999.90;999.90;;;;;;;18.60;54.54;95640.94;4989929;28;20058;-69
2022/05/28 00:34:17;;;;;;;1999.90;999.90;;;;;;;18.55;54.41;95638.50;4990479;28;20026;-70
2022/05/28 00:36:43;;;;;;;1999.90;999.90;;;;;;;18.65;54.07;95628.00;4989211;28;20022;-70
2022/05/28 00:39:08;;;;;;;1999.90;999.90;;;;;;;18.56;54.19;95621.19;4990178;28;20034;-69
2022/05/28 00:41:34;;;;;;;1999.90;999.90;;;;;;;18.35;55.00;95638.31;4989337;28;20022;-69
2022/05/28 00:43:59;;;;;;;1999.90;999.90;;;;;;;18.69;53.94;95612.75;4990698;28;20034;-69
2022/05/28 00:46:26;;;;;;;1999.90;999.90;;;;;;;18.15;54.77;95612.34;4988600;28;20026;-69
2022/05/28 00:48:57;;;;;;;1999.90;999.90;;;;;;;18.18;54.88;95595.53;4993224;28;20025;-69
2022/05/28 00:51:27;;;;;;;1999.90;999.90;;;;;;;18.99;52.88;95635.84;4993263;28;20023;-69
2022/05/28 00:53:56;;;;;;;1999.90;999.90;;;;;;;17.70;56.94;95628.66;4993289;28;20470;-69
2022/05/28 00:56:22;;;;;;;1999.90;999.90;;;;;;;17.96;55.61;95599.47;4993321;28;20026;-69
2022/05/28 00:58:48;;;;;;;1999.90;999.90;;;;;;;18.89;53.37;95610.19;4993043;28;20106;-69
2022/05/28 01:01:15;;;;;;;1999.90;999.90;;;;;;;19.20;52.40;95634.50;4992307;28;20030;-69
2022/05/28 01:04:01;;;;;;;1999.90;999.90;;;;;;;19.21;52.41;95622.59;4993082;28;20491;-69
2022/05/28 01:06:33;;;;;;;1999.90;999.90;;;;;;;19.37;51.76;95625.28;4972536;28;20068;-68
2022/05/28 01:09:03;;;;;;;;;;;;;;;19.40;51.73;95623.81;4993272;28;20105;-69
2022/05/28 01:11:38;;;;;;;1999.90;999.90;;;;;;;19.50;51.37;95615.19;4992951;28;20020;-69
2022/05/28 01:14:24;;;;;;;1999.90;999.90;;;;;;;19.32;52.18;95619.38;4993613;28;20022;-69
2022/05/28 01:16:53;;;;;;;1999.90;999.90;;;;;;;19.29;52.32;95603.88;4973413;28;20448;-69
2022/05/28 01:19:28;;;;;;;1999.90;999.90;;;;;;;19.64;51.67;95612.84;4989033;28;20041;-69
2022/05/28 01:22:09;;;;;;;1999.90;999.90;;;;;;;19.82;51.35;95607.09;4989555;28;20042;-69
2022/05/28 01:24:49;;;;;;;1999.90;999.90;;;;;;;19.67;51.24;95620.25;4989420;28;20038;-69
2022/05/28 01:27:18;;;;;;;1999.90;999.90;;;;;;;19.94;50.62;95593.47;4974399;28;20027;-69
2022/05/28 01:29:51;;;;;;;1999.90;999.90;;;;;;;20.39;49.72;95608.31;4987505;28;20100;-69
2022/05/28 01:32:19;;;;;;;1999.90;999.90;;;;;;;19.29;51.09;95571.50;4993512;28;20024;-69
2022/05/28 01:34:45;;;;;;;1999.90;999.90;;;;;;;19.58;50.67;95584.53;5008943;28;20037;-69
2022/05/28 01:37:11;;;;;;;1999.90;999.90;;;;;;;20.35;49.54;95604.75;4992234;28;20026;-69
2022/05/28 01:39:40;;;;;;;1999.90;999.90;;;;;;;19.69;50.63;95611.78;4991903;28;20023;-69
2022/05/28 01:42:08;;;;;;;1999.90;999.90;;;;;;;20.23;49.86;95603.75;4992100;28;20503;-69
2022/05/28 01:44:36;;;;;;;1999.90;999.90;;;;;;;19.01;51.20;95569.69;4992672;28;20030;-69
2022/05/28 01:47:01;;;;;;;1999.90;999.90;;;;;;;18.45;53.29;95577.81;4993445;28;20472;-69
2022/05/28 01:49:28;;;;;;;1999.90;999.90;;;;;;;18.18;53.87;95584.75;4993073;28;20035;-69
2022/05/28 01:51:57;;;;;;;1999.90;999.90;;;;;;;18.03;54.43;95594.34;4993337;28;20479;-69
2022/05/28 01:54:27;;;;;;;1999.90;999.90;;;;;;;19.29;51.68;95593.06;4993383;28;20030;-70
2022/05/28 01:56:55;;;;;;;1999.90;999.90;;;;;;;17.97;54.73;95605.69;4993356;28;20054;-69
2022/05/28 01:59:23;;;;;;;1999.90;999.90;;;;;;;17.97;54.33;95579.53;4990833;28;20034;-69
2022/05/28 02:01:50;;;;;;;1999.90;999.90;;;;;;;17.44;56.02;95605.56;4993076;28;20034;-69
2022/05/28 02:04:15;;;;;;;1999.90;999.90;;;;;;;17.66;55.41;95591.66;4992322;28;20034;-69
2022/05/28 02:06:42;;;;;;;1999.90;999.90;;;;;;;16.84;57.52;95575.59;4991874;28;20499;-69
2022/05/28 02:09:12;;;;;;;1999.90;999.90;;;;;;;17.59;55.70;95612.94;4991459;28;20479;-69
2022/05/28 02:11:52;;;;;;;1999.90;999.90;;;;;;;17.49;56.18;95602.66;4992982;28;20026;-69
2022/05/28 02:14:29;;;;;;;1999.90;999.90;;;;;;;17.78;55.58;95600.88;4972647;28;20027;-68
2022/05/28 02:17:25;;;;;;;1999.90;999.90;;;;;;;17.58;55.41;95597.94;4988479;28;20594;-69
2022/05/28 02:20:15;;;;;;;1999.90;999.90;;;;;;;17.64;55.44;95591.22;4973262;28;20031;-69
2022/05/28 02:22:52;;;;;;;1999.90;999.90;;;;;;;17.93;53.80;95581.34;4973412;28;20460;-69
2022/05/28 02:25:27;;;;;;;1999.90;999.90;;;;;;;17.24;55.68;95584.94;4971979;28;20034;-69
2022/05/28 02:27:54;;;;;;;1999.90;999.90;;;;;;;16.58;57.08;95556.22;4987508;28;20042;-69
2022/05/28 02:30:20;;;;;;;1999.90;999.90;;;;;;;16.98;56.59;95572.59;4992187;28;20058;-69
2022/05/28 02:32:45;;;;;;;1999.90;999.90;;;;;;;17.05;55.90;95559.41;4992626;28;20400;-69
2022/05/28 02:35:12;;;;;;;1999.90;999.90;;;;;;;17.40;55.77;95583.94;4992517;28;20475;-69
2022/05/28 02:37:38;;;;;;;1999.90;999.90;;;;;;;17.10;56.20;95569.94;4992421;28;20023;-69
2022/05/28 02:40:04;;;;;;;1999.90;999.90;;;;;;;17.54;55.39;95588.97;4991992;28;20026;-69
2022/05/28 02:42:30;;;;;;;1999.90;999.90;;;;;;;16.70;57.12;95553.59;4991340;28;20034;-69
2022/05/28 02:44:55;;;;;;;1999.90;999.90;;;;;;;17.01;56.48;95560.41;4992479;28;20037;-69
2022/05/28 02:47:21;;;;;;;1999.90;999.90;;;;;;;16.93;56.62;95578.19;4992428;28;20030;-69
2022/05/28 02:49:46;;;;;;;1999.90;999.90;;;;;;;16.48;58.29;95576.25;4991971;28;20030;-70
2022/05/28 02:52:12;;;;;;;1999.90;999.90;;;;;;;15.86;60.12;95566.34;4992153;28;20037;-69
2022/05/28 02:54:37;;;;;;;1999.90;999.90;;;;;;;17.09;56.57;95565.66;4991075;28;20491;-69
2022/05/28 02:57:04;;;;;;;1999.90;999.90;;;;;;;17.40;55.73;95573.19;4991220;28;20034;-69
2022/05/28 02:59:30;;;;;;;1999.90;999.90;;;;;;;16.50;58.47;95559.81;4991771;28;20022;-69
2022/05/28 03:01:55;;;;;;;1999.90;999.90;;;;;;;16.36;58.66;95578.88;4992057;28;20390;-69
2022/05/28 03:04:20;;;;;;;1999.90;999.90;;;;;;;16.47;58.65;95587.31;4991333;28;20035;-69
2022/05/28 03:06:46;;;;;;;1999.90;999.90;;;;;;;16.26;58.41;95547.06;4991930;28;20026;-68
2022/05/28 03:09:11;;;;;;;1999.90;999.90;;;;;;;16.49;58.28;95575.13;4991665;28;20402;-69
2022/05/28 03:11:38;;;;;;;1999.90;999.90;;;;;;;16.87;56.94;95588.34;5005272;28;20475;-68
2022/05/28 03:14:05;;;;;;;1999.90;999.90;;;;;;;16.29;58.13;95573.28;4990526;28;20537;-69
2022/05/28 03:16:30;;;;;;;1999.90;999.90;;;;;;;16.47;57.32;95558.56;4991636;28;20037;-69
2022/05/28 03:18:56;;;;;;;1999.90;999.90;;;;;;;16.81;56.20;95586.22;5006549;28;20026;-69
2022/05/28 03:21:21;;;;;;;1999.90;999.90;;;;;;;17.02;54.84;95570.03;4991553;28;20045;-69
2022/05/28 03:23:47;;;;;;;1999.90;999.90;;;;;;;16.89;56.10;95596.09;4991554;28;20425;-69
2022/05/28 03:26:19;;;;;;;1999.90;999.90;;;;;;;16.63;55.96;95578.31;4990980;28;20034;-69
2022/05/28 03:28:45;;;;;;;;;;;;;;;17.04;55.51;95590.06;4991587;28;20483;-69
2022/05/28 03:31:11;;;;;;;1999.90;999.90;;;;;;;16.63;55.99;95574.81;4990439;28;19914;-69
2022/05/28 03:33:36;;;;;;;1999.90;999.90;;;;;;;17.51;53.66;95543.94;4991690;28;20021;-69
2022/05/28 03:36:02;;;;;;;1999.90;999.90;;;;;;;17.90;52.62;95579.31;5006597;28;20052;-69
2022/05/28 03:38:28;;;;;;;1999.90;999.90;;;;;;;17.03;54.58;95569.69;4991180;28;20384;-69
2022/05/28 03:40:53;;;;;;;1999.90;999.90;;;;;;;17.07;54.92;95567.91;4990313;28;20031;-69
2022/05/28 03:43:18;;;;;;;1999.90;999.90;;;;;;;17.32;53.98;95552.56;4989315;28;20383;-69
2022/05/28 03:45:44;;;;;;;1999.90;999.90;;;;;;;17.14;55.41;95596.91;4991419;28;20113;-69
2022/05/28 03:48:11;;;;;;;1999.90;999.90;;;;;;;17.00;55.17;95562.31;5005769;28;20023;-69
2022/05/28 03:50:36;;;;;;;1999.90;999.90;;;;;;;16.84;54.80;95575.59;4991124;28;20037;-69
2022/05/28 03:53:02;;;;;;;1999.90;999.90;;;;;;;16.63;55.45;95599.81;4990215;28;20018;-69
2022/05/28 03:55:27;;;;;;;1999.90;999.90;;;;;;;17.78;52.84;95587.44;4971719;28;20054;-69
2022/05/28 03:57:53;;;;;;;1999.90;999.90;;;;;;;17.55;53.41;95612.06;4970253;28;20027;-70
2022/05/28 04:00:19;;;;;;;1999.90;999.90;;;;;;;16.06;56.90;95602.31;4971216;28;20511;-69
2022/05/28 04:02:45;;;;;;;1999.90;999.90;;;;;;;16.09;57.16;95618.56;4970458;28;20158;-69
2022/05/28 04:05:10;;;;;;;1999.90;999.90;;;;;;;17.04;53.94;95595.44;4971548;28;20019;-69
2022/05/28 04:07:36;;;;;;;1999.90;999.90;;;;;;;16.83;54.21;95594.72;4971720;28;20034;-68
2022/05/28 04:10:04;;;;;;;1999.90;999.90;;;;;;;16.05;56.21;95622.22;4986408;28;20031;-69
2022/05/28 04:12:30;;;;;;;1999.90;999.90;;;;;;;16.72;54.40;95588.22;4990674;28;20097;-69
2022/05/28 04:14:56;;;;;;;1999.90;999.90;;;;;;;16.57;54.36;95605.69;4990780;28;20027;-69
2022/05/28 04:17:21;;;;;;;1999.90;999.90;;;;;;;18.00;51.19;95619.22;4990829;28;20032;-69
2022/05/28 04:19:46;;;;;;;1999.90;999.90;;;;;;;17.94;51.02;95620.59;4990578;28;20027;-69
2022/05/28 04:22:12;;;;;;;1999.90;999.90;;;;;;;17.78;51.09;95617.81;4990406;28;20476;-69
2022/05/28 04:24:37;;;;;;;1999.90;999.90;;;;;;;17.99;49.89;95581.88;4989966;28;20369;-69
2022/05/28 04:27:03;;;;;;;1999.90;999.90;;;;;;;18.23;48.98;95594.50;5005529;28;20026;-69
2022/05/28 04:29:28;;;;;;;1999.90;999.90;;;;;;;17.49;48.24;95610.72;4990278;28;20030;-70
2022/05/28 04:31:54;;;;;;;1999.90;999.90;;;;;;;16.81;49.07;95591.59;4990833;28;20030;-69
2022/05/28 04:34:19;;;;;;;1999.90;999.90;;;;;;;17.06;48.65;95616.63;4989578;28;20456;-69
2022/05/28 04:36:44;;;;;;;1999.90;999.90;;;;;;;17.57;47.83;95612.50;5005419;28;20118;-70
2022/05/28 04:39:10;;;;;;;1999.90;999.90;;;;;;;16.95;49.09;95594.00;4990457;28;20053;-69
2022/05/28 04:41:35;;;;;;;1999.90;999.90;;;;;;;16.96;49.36;95606.28;4990739;28;20415;-71
2022/05/28 04:44:01;;;;;;;1999.90;999.90;;;;;;;16.04;51.82;95631.41;4990703;28;20101;-70
2022/05/28 04:46:26;;;;;;;1999.90;999.90;;;;;;;16.16;51.93;95639.50;4988856;28;20055;-69
2022/05/28 04:48:51;;;;;;;1999.90;999.90;;;;;;;15.46;53.54;95657.88;4990326;28;20030;-69
2022/05/28 04:51:17;;;;;;;1999.90;999.90;;;;;;;15.16;53.23;95613.38;4990573;28;20034;-70
2022/05/28 04:53:42;;;;;;;1999.90;999.90;;;;;;;16.40;50.27;95595.13;4989146;28;20451;-69
2022/05/28 04:56:08;;;;;;;1999.90;999.90;;;;;;;16.41;49.92;95645.00;4990466;28;20076;-69
2022/05/28 04:58:33;;;;;;;1999.90;999.90;;;;;;;16.73;48.96;95625.47;4988878;28;20498;-69
2022/05/28 05:00:59;;;;;;;1999.90;999.90;;;;;;;15.95;49.79;95612.66;4990375;28;20375;-69
2022/05/28 05:03:25;;;;;;;1999.90;999.90;;;;;;;15.63;50.18;95606.09;4989286;28;20069;-69
2022/05/28 05:05:50;;;;;;;1999.90;999.90;;;;;;;15.86;50.62;95642.22;4988638;28;20029;-69
2022/05/28 05:08:15;;;;;;;1999.90;999.90;;;;;;;15.81;50.57;95625.53;4988648;28;20100;-69
2022/05/28 05:10:41;;;;;;;1999.90;999.90;;;;;;;16.89;47.76;95588.81;4989363;28;20045;-69
2022/05/28 05:13:06;;;;;;;1999.90;999.90;;;;;;;17.31;47.25;95612.06;4990303;28;20030;-69
2022/05/28 05:15:32;;;;;;;1999.90;999.90;;;;;;;15.59;50.32;95605.91;4990226;28;20026;-69
2022/05/28 05:17:58;;;;;;;1999.90;999.90;;;;;;;16.51;48.31;95640.03;4989206;28;20038;-69
2022/05/28 05:20:24;;;;;;;1999.90;999.90;;;;;;;15.95;48.75;95644.88;4989867;28;20494;-69
2022/05/28 05:22:54;;;;;;;1999.90;999.90;;;;;;;15.32;49.46;95646.59;4988775;28;20035;-69
2022/05/28 05:25:20;;;;;;;1999.90;999.90;;;;;;;15.64;48.07;95625.66;4989817;28;20030;-70
2022/05/28 05:27:45;;;;;;;1999.90;999.90;;;;;;;15.19;48.62;95636.84;4990196;28;20026;-69
2022/05/28 05:30:12;;;;;;;1999.90;999.90;;;;;;;15.66;47.46;95655.59;4988404;28;20026;-69
2022/05/28 05:32:37;;;;;;;1999.90;999.90;;;;;;;15.86;45.89;95646.81;4990202;28;20034;-69
2022/05/28 05:35:03;;;;;;;1999.90;999.90;;;;;;;16.66;44.85;95649.38;4992132;28;20027;-69
2022/05/28 05:37:29;;;;;;;1999.90;999.90;;;;;;;16.39;45.07;95631.94;4990988;28;20030;-69
2022/05/28 05:39:54;;;;;;;1999.90;999.90;;;;;;;15.69;45.29;95663.00;4993578;28;20026;-70
2022/05/28 05:42:19;;;;;;;1999.90;999.90;;;;;;;14.99;45.85;95633.75;4993299;28;20531;-69
2022/05/28 05:44:45;;;;;;;1999.90;999.90;;;;;;;16.37;43.79;95607.28;4993882;28;20030;-69
2022/05/28 05:47:10;;;;;;;1999.90;999.90;;;;;;;17.42;41.89;95642.78;4993658;28;20031;-69
2022/05/28 05:49:36;;;;;;;1999.90;999.90;;;;;;;16.49;44.36;95609.25;4993190;28;20112;-70
2022/05/28 05:52:03;;;;;;;1999.90;999.90;;;;;;;17.30;43.37;95627.41;4992448;28;20368;-69
2022/05/28 05:54:28;;;;;;;1999.90;999.90;;;;;;;15.46;45.52;95566.75;4992201;28;20041;-69
2022/05/28 05:56:54;;;;;;;1999.90;999.90;;;;;;;16.51;44.63;95645.41;4993217;28;20018;-69
2022/05/28 05:59:20;;;;;;;1999.90;999.90;;;;;;;16.30;45.77;95660.72;4992895;28;20037;-69
2022/05/28 06:01:45;;;;;;;1999.90;999.90;;;;;;;15.46;47.37;95663.25;4993447;28;20113;-69
2022/05/28 06:04:11;;;;;;;1999.90;999.90;;;;;;;15.58;47.15;95666.03;4992643;28;20026;-69
2022/05/28 06:06:36;;;;;;;1999.90;999.90;;;;;;;15.84;46.23;95643.69;5008520;28;20030;-69
2022/05/28 06:09:02;;;;;;;1999.90;999.90;;;;;;;15.14;46.54;95653.88;4993030;28;20081;-70
2022/05/28 06:11:27;;;;;;;1999.90;999.90;;;;;;;15.55;46.34;95642.53;5008492;28;20113;-68
2022/05/28 06:13:53;;;;;;;1999.90;999.90;;;;;;;15.09;44.65;95632.63;4993010;28;20019;-67
2022/05/28 06:16:18;;;;;;;1999.90;999.90;;;;;;;16.03;42.75;95635.19;4992943;28;20065;-67
2022/05/28 06:18:44;;;;;;;1999.90;999.90;;;;;;;15.87;42.70;95640.34;5007078;28;20572;-68
2022/05/28 06:21:10;;;;;;;1999.90;999.90;;;;;;;16.55;41.13;95613.31;4991859;28;20041;-67
2022/05/28 06:23:36;;;;;;;1999.90;999.90;;;;;;;16.75;40.60;95633.22;4992755;28;20037;-67
2022/05/28 06:26:03;;;;;;;1999.90;999.90;;;;;;;16.42;40.64;95662.69;4992356;28;20027;-68
2022/05/28 06:28:29;;;;;;;1999.90;999.90;;;;;;;16.18;41.30;95583.63;4992426;28;20587;-67
2022/05/28 06:31:01;;;;;;;1999.90;999.90;;;;;;;16.50;39.92;95653.78;4992941;28;20151;-72
2022/05/28 06:33:27;;;;;;;1999.90;999.90;;;;;;;16.62;40.25;95651.94;4998242;28;20027;-68
2022/05/28 06:35:57;;;;;;;1999.90;999.90;;;;;;;18.16;37.71;95641.63;4992796;28;20025;-68
2022/05/28 06:38:24;;;;;;;1999.90;999.90;;;;;;;16.31;39.70;95651.56;4992504;28;20644;-68
2022/05/28 06:40:49;;;;;;;1999.90;999.90;;;;;;;16.47;41.53;95644.47;4992768;28;20801;-68
2022/05/28 06:43:15;;;;;;;1999.90;999.90;;;;;;;15.98;40.97;95635.41;4992889;28;20042;-69
2022/05/28 06:45:40;;;;;;;1999.90;999.90;;;;;;;16.56;40.57;95612.97;4992630;28;20025;-68
2022/05/28 06:48:07;;;;;;;1999.90;999.90;;;;;;;16.85;41.27;95609.41;4996776;28;20911;-68
2022/05/28 06:53:17;;;;;;;1999.90;999.90;;;;;;;16.48;40.62;95631.84;4992846;28;20500;-67
2022/05/28 06:55:42;;;;;;;1999.90;999.90;;;;;;;16.97;40.04;95645.47;4992448;28;20038;-67
2022/05/28 06:58:08;;;;;;;1999.90;999.90;;;;;;;17.70;39.11;95642.09;4991888;28;20022;-66
2022/05/28 07:00:35;;;;;;;1999.90;999.90;;;;;;;15.97;40.60;95647.22;4992266;28;20496;-66
2022/05/28 07:03:01;;;;;;;1999.90;999.90;;;;;;;17.13;39.61;95611.47;4998555;28;20033;-66
2022/05/28 07:05:28;;;;;;;1999.90;999.90;;;;;;;18.19;37.60;95610.56;5000594;28;20446;-64
2022/05/28 07:07:54;;;;;;;1999.90;999.90;;;;;;;16.15;39.90;95554.75;4992137;28;20490;-66
2022/05/28 07:10:19;;;;;;;1999.90;999.90;;;;;;;16.63;41.05;95607.88;4991899;28;20042;-65
2022/05/28 07:12:45;;;;;;;1999.90;999.90;;;;;;;16.41;40.36;95635.06;4988451;28;20053;-66
2022/05/28 07:15:10;;;;;;;1999.90;999.90;;;;;;;16.06;42.54;95670.19;4991937;28;20034;-66
2022/05/28 07:17:36;;;;;;;1999.90;999.90;;;;;;;16.40;41.84;95644.22;4994929;28;20030;-66
2022/05/28 07:20:02;;;;;;;1999.90;999.90;;;;;;;16.73;42.24;95612.03;5010841;28;20033;-66
2022/05/28 07:22:29;;;;;;;1999.90;999.90;;;;;;;16.47;44.08;95668.66;5011593;28;20149;-65
2022/05/28 07:24:54;;;;;;;1999.90;999.90;;;;;;;16.11;43.83;95635.13;5011370;28;20048;-66
2022/05/28 07:27:20;;;;;;;1999.90;999.90;;;;;;;18.33;40.72;95648.66;4998263;28;20550;-68
2022/05/28 07:29:46;;;;;;;1999.90;999.90;;;;;;;17.11;40.04;95602.97;4991616;28;20117;-70
2022/05/28 07:32:12;;;;;;;1999.90;999.90;;;;;;;17.51;38.37;95638.06;4990764;28;20471;-67
2022/05/28 07:34:37;;;;;;;1999.90;999.90;;;;;;;17.44;40.24;95642.44;4990712;28;20049;-67
2022/05/28 07:37:03;;;;;;;1999.90;999.90;;;;;;;18.18;38.43;95636.69;4993621;28;20113;-67
2022/05/28 07:39:30;;;;;;;1999.90;999.90;;;;;;;16.79;40.77;95631.44;5012620;28;20022;-69
2022/05/28 07:41:55;;;;;;;1999.90;999.90;;;;;;;16.07;41.92;95642.28;5017139;28;20104;-71
2022/05/28 07:44:22;;;;;;;1999.90;999.90;;;;;;;16.33;41.23;95603.72;4998265;28;20050;-68
2022/05/28 07:46:47;;;;;;;1999.90;999.90;;;;;;;17.45;41.64;95644.78;4989357;28;20053;-70
2022/05/28 07:49:13;;;;;;;1999.90;999.90;;;;;;;16.45;42.35;95595.69;4992125;28;20056;-68
2022/05/28 07:51:38;;;;;;;1999.90;999.90;;;;;;;16.64;42.25;95644.34;4992161;28;20069;-68
2022/05/28 07:54:05;;;;;;;1999.90;999.90;;;;;;;17.61;39.83;95648.38;5008373;28;20034;-68
2022/05/28 07:56:31;;;;;;;1999.90;999.90;;;;;;;17.24;41.15;95644.06;5011048;28;20037;-68
2022/05/28 07:58:58;;;;;;;1999.90;999.90;;;;;;;16.56;40.41;95629.09;4999209;28;20039;-66
2022/05/28 08:01:31;;;;;;;1999.90;999.90;;;;;;;17.75;38.68;95639.22;5011280;28;20029;-67
2022/05/28 08:04:02;;;;;;;1999.90;999.90;;;;;;;17.01;39.01;95649.09;5001598;28;20120;-70
2022/05/28 08:06:31;;;;;;;1999.90;999.90;;;;;;;16.78;39.05;95640.59;4988984;28;20018;-68
2022/05/28 08:08:57;;;;;;;1999.90;999.90;;;;;;;15.76;42.09;95621.13;5007690;28;20034;-69
2022/05/28 08:11:23;;;;;;;1999.90;999.90;;;;;;;15.84;41.44;95611.47;5010249;28;20022;-69
2022/05/28 08:13:49;;;;;;;1999.90;999.90;;;;;;;15.45;42.41;95653.59;5010041;28;20033;-68
2022/05/28 08:16:15;;;;;;;1999.90;999.90;;;;;;;15.90;42.53;95653.09;5001493;28;20037;-67
2022/05/28 08:18:41;;;;;;;1999.90;999.90;;;;;;;16.15;41.37;95637.94;4998458;28;20084;-70
2022/05/28 08:23:52;;;;;;;1999.90;999.90;;;;;;;16.66;40.27;95635.16;4996366;28;20048;-69
2022/05/28 08:26:19;;;;;;;1999.90;999.90;;;;;;;17.28;39.09;95631.53;4986139;28;20644;-67
2022/05/28 08:28:47;;;;;;;1999.90;999.90;;;;;;;17.04;37.49;95637.66;4988825;28;20037;-69
2022/05/28 08:31:13;;;;;;;1999.90;999.90;;;;;;;16.63;37.82;95631.22;4986842;28;20022;-67
2022/05/28 08:33:38;;;;;;;1999.90;999.90;;;;;;;15.79;40.41;95646.53;4980407;28;20026;-67
2022/05/28 08:36:04;;;;;;;1999.90;999.90;;;;;;;16.23;39.06;95647.06;4991260;28;20514;-68
2022/05/28 08:38:30;;;;;;;1999.90;999.90;;;;;;;16.62;39.51;95643.09;4997770;28;20044;-67
2022/05/28 08:41:20;;;;;;;1999.90;999.90;;;;;;;15.36;40.68;95654.78;4989095;28;20480;-68
2022/05/28 08:44:19;;;;;;;1999.90;999.90;;;;;;;15.34;40.36;95645.13;4973017;28;20113;-70
2022/05/28 08:46:50;;;;;;;1999.90;999.90;;;;;;;15.58;40.54;95646.47;4986269;28;20034;-69
2022/05/28 08:49:15;;;;;;;1999.90;999.90;;;;;;;16.06;39.26;95634.53;5001527;28;20525;-68
2022/05/28 08:52:09;;;;;;;1999.90;999.90;;;;;;;16.28;39.60;95658.38;4976928;28;20043;-69
2022/05/28 08:54:56;;;;;;;1999.90;999.90;;;;;;;16.97;38.22;95610.56;4987375;28;20039;-66
2022/05/28 08:57:45;;;;;;;1999.90;999.90;;;;;;;17.54;36.80;95637.38;4986033;28;20045;-67
2022/05/28 09:00:17;;;;;;;1999.90;999.90;;;;;;;16.38;36.67;95635.72;4970473;28;20027;-65
2022/05/28 09:02:50;;;;;;;1999.90;999.90;;;;;;;16.80;34.97;95649.91;4988320;28;20033;-70
2022/05/28 09:05:18;;;;;;;1999.90;999.90;;;;;;;16.94;34.65;95652.31;4989933;28;20042;-71
2022/05/28 09:07:43;;;;;;;1999.90;999.90;;;;;;;15.93;35.38;95654.38;4990713;28;20106;-70
2022/05/28 09:10:10;;;;;;;1999.90;999.90;;;;;;;16.83;35.29;95654.63;4991183;28;20452;-71
2022/05/28 09:12:47;;;;;;;1999.90;999.90;;;;;;;16.73;33.61;95651.56;4994494;28;20036;-71
2022/05/28 09:15:13;;;;;;;1999.90;999.90;;;;;;;16.75;32.79;95649.34;4992822;28;20074;-71
2022/05/28 09:17:50;;;;;;;1999.90;999.90;;;;;;;17.02;33.64;95651.44;4993793;28;20101;-71
2022/05/28 09:20:22;;;;;;;1999.90;999.90;;;;;;;17.12;30.51;95642.16;5009820;28;20068;-71
2022/05/28 09:22:48;;;;;;;1999.90;999.90;;;;;;;16.99;31.19;95649.41;5012773;28;20033;-71
2022/05/28 09:25:18;;;;;;;1999.90;999.90;;;;;;;17.10;31.65;95639.03;4998597;28;20089;-71
2022/05/28 09:27:51;;;;;;;1999.90;999.90;;;;;;;16.01;32.95;95670.38;4992288;28;20026;-72
2022/05/28 09:30:22;;;;;;;1999.90;999.90;;;;;;;16.64;32.15;95638.97;4992133;28;20479;-72
2022/05/28 09:33:10;;;;;;;1999.90;999.90;;;;;;;17.52;32.11;95649.63;4993574;28;20034;-70
2022/05/28 09:36:07;;;;;;;1999.90;999.90;;;;;;;17.63;32.00;95624.63;5012485;28;20065;-71
2022/05/28 09:38:38;;;;;;;1999.90;999.90;;;;;;;16.68;33.47;95632.94;5012787;28;20066;-72
2022/05/28 09:41:07;;;;;;;1999.90;999.90;;;;;;;18.41;30.59;95641.56;5002393;28;20034;-71
2022/05/28 09:43:58;;;;;;;1999.90;999.90;;;;;;;16.83;33.04;95635.81;4992766;28;20158;-71
2022/05/28 09:46:31;;;;;;;1999.90;999.90;;;;;;;16.63;33.53;95626.66;4997728;28;20483;-73
2022/05/28 09:48:58;;;;;;;1999.90;999.90;;;;;;;16.49;33.46;95603.91;4993924;28;20037;-71
2022/05/28 09:51:27;;;;;;;1999.90;999.90;;;;;;;16.53;33.79;95623.56;4993643;28;20027;-70
2022/05/28 09:54:16;;;;;;;1999.90;999.90;;;;;;;16.42;35.27;95625.88;4992296;28;20041;-71
2022/05/28 09:56:44;;;;;;;1999.90;999.90;;;;;;;16.61;34.37;95642.31;4992479;28;20027;-72
2022/05/28 09:59:32;;;;;;;1999.90;999.90;;;;;;;16.29;35.61;95648.44;4991168;28;20458;-72
2022/05/28 10:02:18;;;;;;;1999.90;999.90;;;;;;;17.59;33.75;95633.69;4992193;28;20495;-73
2022/05/28 10:05:16;;;;;;;1999.90;999.90;;;;;;;17.27;33.47;95627.28;5003690;28;20541;-71
2022/05/28 10:07:47;;;;;;;1999.90;999.90;;;;;;;18.10;32.96;95636.81;5011464;28;20029;-71
2022/05/28 10:10:29;;;;;;;1999.90;999.90;;;;;;;16.99;35.35;95641.34;5010948;28;20419;-72
2022/05/28 10:13:08;;;;;;;1999.90;999.90;;;;;;;17.44;34.08;95608.25;5011491;28;20470;-73
2022/05/28 10:15:39;;;;;;;1999.90;999.90;;;;;;;17.55;32.76;95617.44;4995671;28;20491;-72
2022/05/28 10:18:16;;;;;;;1999.90;999.90;;;;;;;19.05;31.32;95610.22;4991548;28;20030;-74
2022/05/28 10:20:42;;;;;;;1999.90;999.90;;;;;;;19.21;30.89;95613.72;5007503;28;20030;-73
2022/05/28 10:23:15;;;;;;;1999.90;999.90;;;;;;;17.85;34.02;95620.69;5011381;28;20088;-72
2022/05/28 10:25:50;;;;;;;1999.90;999.90;;;;;;;18.93;32.18;95617.22;5012369;28;20026;-73
2022/05/28 10:28:48;;;;;;;1999.90;999.90;;;;;;;18.24;34.37;95609.53;5005522;28;20085;-74
2022/05/28 10:31:31;;;;;;;1999.90;999.90;;;;;;;18.93;31.77;95586.78;4992720;28;20089;-73
2022/05/28 10:33:57;;;;;;;1999.90;999.90;;;;;;;18.34;32.65;95609.84;4993087;28;20028;-74
2022/05/28 10:36:25;;;;;;;1999.90;999.90;;;;;;;19.12;31.49;95613.09;5012454;28;20021;-72
2022/05/28 10:38:51;;;;;;;1999.90;999.90;;;;;;;18.51;32.21;95619.53;5012355;28;20068;-73
2022/05/28 10:41:25;;;;;;;1999.90;999.90;;;;;;;18.92;32.57;95622.97;5011226;28;20374;-70
2022/05/28 10:43:50;;;;;;;1999.90;999.90;;;;;;;18.28;33.01;95605.81;4999975;28;20046;-70
2022/05/28 10:46:34;;;;;;;1999.90;999.90;;;;;;;17.95;32.55;95619.44;4992439;28;20036;-68
2022/05/28 10:49:21;;;;;;;1999.90;999.90;;;;;;;18.60;31.90;95606.69;4991622;28;20057;-69
2022/05/28 10:52:06;;;;;;;1999.90;999.90;;;;;;;17.39;32.16;95620.00;5012293;28;20080;-69
2022/05/28 10:54:44;;;;;;;1999.90;999.90;;;;;;;18.13;31.94;95626.16;5012001;28;20026;-70
2022/05/28 10:57:30;;;;;;;1999.90;999.90;;;;;;;17.58;33.67;95624.84;4996114;28;20033;-74
2022/05/28 11:00:28;;;;;;;1999.90;999.90;;;;;;;17.01;34.05;95609.56;5006939;28;20034;-73
2022/05/28 11:03:24;;;;;;;1999.90;999.90;;;;;;;17.68;33.80;95605.56;4992228;28;20046;-71
2022/05/28 11:06:04;;;;;;;1999.90;999.90;;;;;;;18.72;32.17;95595.09;5006799;28;20033;-71
2022/05/28 11:08:56;;;;;;;1999.90;999.90;;;;;;;18.14;32.57;95594.63;5011764;28;20033;-71